createdAt,value
2023-04-16T00:00:32.857Z,9.62
2023-04-16T00:03:03.652Z,9.60
2023-04-16T00:05:34.501Z,9.58
2023-04-16T00:08:05.426Z,9.56
2023-04-16T00:10:36.998Z,9.54
2023-04-16T00:13:07.377Z,9.53
2023-04-16T00:15:38.447Z,9.51
2023-04-16T00:18:09.261Z,9.49
2023-04-16T00:20:39.838Z,9.48
2023-04-16T00:23:10.371Z,9.47
2023-04-16T00:25:40.980Z,9.46
2023-04-16T00:28:11.734Z,9.45
2023-04-16T00:30:42.198Z,9.44
2023-04-16T00:33:12.912Z,9.44
2023-04-16T00:35:46.411Z,9.44
2023-04-16T00:38:17.157Z,9.43
2023-04-16T00:40:48.048Z,9.42
2023-04-16T00:43:25.353Z,9.40
2023-04-16T00:45:57.693Z,9.37
2023-04-16T00:48:28.819Z,9.36
2023-04-16T00:51:01.066Z,9.33
2023-04-16T00:53:31.768Z,9.29
2023-04-16T00:56:03.397Z,9.28
2023-04-16T00:58:34.772Z,9.26
2023-04-16T01:01:05.693Z,9.24
2023-04-16T01:03:41.484Z,9.21
2023-04-16T01:06:12.689Z,9.17
2023-04-16T01:08:43.073Z,9.12
2023-04-16T01:11:15.031Z,9.09
2023-04-16T01:13:45.557Z,9.07
2023-04-16T01:16:16.067Z,9.03
2023-04-16T01:18:46.514Z,9.01
2023-04-16T01:21:17.454Z,8.99
2023-04-16T01:23:48.179Z,8.97
2023-04-16T01:26:19.009Z,8.96
2023-04-16T01:28:49.507Z,8.95
2023-04-16T01:31:20.363Z,8.93
2023-04-16T01:33:51.186Z,8.90
2023-04-16T01:36:21.609Z,8.86
2023-04-16T01:38:52.500Z,8.83
2023-04-16T01:41:23.015Z,8.78
2023-04-16T01:43:53.744Z,8.78
2023-04-16T01:46:28.766Z,8.76
2023-04-16T01:48:59.274Z,8.75
2023-04-16T01:51:29.695Z,8.73
2023-04-16T01:54:00.347Z,8.71
2023-04-16T01:56:31.250Z,8.70
2023-04-16T01:59:01.991Z,8.69
2023-04-16T02:01:32.939Z,8.70
2023-04-16T02:04:03.519Z,8.68
2023-04-16T02:06:33.965Z,8.67
2023-04-16T02:09:04.777Z,8.66
2023-04-16T02:11:35.426Z,8.65
2023-04-16T02:14:06.066Z,8.63
2023-04-16T02:16:36.563Z,8.62
2023-04-16T02:19:07.434Z,8.60
2023-04-16T02:21:38.016Z,8.60
2023-04-16T02:24:08.761Z,8.57
2023-04-16T02:26:39.652Z,8.55
2023-04-16T02:29:10.246Z,8.53
2023-04-16T02:31:41.053Z,8.50
2023-04-16T02:34:11.587Z,8.49
2023-04-16T02:36:42.072Z,8.47
2023-04-16T02:39:12.512Z,8.46
2023-04-16T02:41:42.961Z,8.45
2023-04-16T02:44:13.648Z,8.44
2023-04-16T02:46:44.300Z,8.44
2023-04-16T02:49:15.012Z,8.43
2023-04-16T02:51:45.752Z,8.42
2023-04-16T02:54:16.508Z,8.41
2023-04-16T02:56:47.159Z,8.40
2023-04-16T02:59:18.097Z,8.37
2023-04-16T03:01:48.952Z,8.36
2023-04-16T03:04:20.039Z,8.36
2023-04-16T03:06:50.709Z,8.35
2023-04-16T03:09:21.025Z,8.35
2023-04-16T03:11:51.688Z,8.35
2023-04-16T03:14:22.418Z,8.34
2023-04-16T03:16:53.305Z,8.32
2023-04-16T03:19:23.779Z,8.31
2023-04-16T03:21:54.504Z,8.28
2023-04-16T03:24:26.077Z,8.28
2023-04-16T03:26:58.089Z,8.24
2023-04-16T03:29:28.790Z,8.21
2023-04-16T03:31:59.287Z,8.19
2023-04-16T03:34:29.713Z,8.16
2023-04-16T03:37:00.663Z,8.11
2023-04-16T03:39:31.565Z,8.09
2023-04-16T03:42:03.410Z,8.08
2023-04-16T03:44:33.813Z,8.06
2023-04-16T03:47:04.849Z,8.04
2023-04-16T03:49:35.762Z,8.01
2023-04-16T03:52:06.460Z,7.99
2023-04-16T03:54:36.664Z,7.97
2023-04-16T03:57:07.106Z,7.96
2023-04-16T03:59:37.794Z,7.94
2023-04-16T04:02:08.536Z,7.94
2023-04-16T04:04:39.466Z,7.93
2023-04-16T04:07:09.838Z,7.93
2023-04-16T04:09:40.284Z,7.91
2023-04-16T04:12:11.258Z,7.90
2023-04-16T04:14:41.825Z,7.90
2023-04-16T04:17:12.769Z,7.90
2023-04-16T04:19:54.300Z,7.89
2023-04-16T04:22:31.179Z,7.89
2023-04-16T04:25:02.100Z,7.89
2023-04-16T04:27:32.585Z,7.87
2023-04-16T04:30:04.101Z,7.86
2023-04-16T04:32:34.618Z,7.84
2023-04-16T04:35:06.069Z,7.82
2023-04-16T04:37:37.239Z,7.81
2023-04-16T04:40:09.606Z,7.80
2023-04-16T04:42:40.223Z,7.79
2023-04-16T04:45:12.792Z,7.79
2023-04-16T04:47:43.618Z,7.79
2023-04-16T04:50:14.378Z,7.78
2023-04-16T04:52:45.229Z,7.77
2023-04-16T04:55:16.056Z,7.75
2023-04-16T04:57:46.585Z,7.73
2023-04-16T05:00:17.129Z,7.70
2023-04-16T05:02:47.953Z,7.69
2023-04-16T05:05:18.631Z,7.69
2023-04-16T05:07:49.945Z,7.71
2023-04-16T05:10:20.469Z,7.70
2023-04-16T05:12:51.059Z,7.70
2023-04-16T05:15:21.770Z,7.71
2023-04-16T05:17:52.550Z,7.71
2023-04-16T05:20:23.910Z,7.70
2023-04-16T05:22:55.351Z,7.71
2023-04-16T05:25:26.129Z,7.73
2023-04-16T05:27:56.572Z,7.75
2023-04-16T05:30:26.963Z,7.77
2023-04-16T05:32:57.721Z,7.78
2023-04-16T05:35:28.291Z,7.81
2023-04-16T05:37:58.884Z,7.81
2023-04-16T05:40:29.897Z,7.80
2023-04-16T05:43:00.281Z,7.81
2023-04-16T05:45:31.216Z,7.82
2023-04-16T05:48:02.030Z,7.82
2023-04-16T05:50:32.434Z,7.83
2023-04-16T05:53:03.702Z,7.85
2023-04-16T05:55:35.417Z,7.86
2023-04-16T05:58:06.620Z,7.88
2023-04-16T06:00:37.181Z,7.89
2023-04-16T06:03:07.874Z,7.90
2023-04-16T06:05:38.688Z,7.91
2023-04-16T06:08:09.588Z,7.92
2023-04-16T06:10:40.290Z,7.92
2023-04-16T06:13:11.295Z,7.93
2023-04-16T06:15:41.762Z,7.93
2023-04-16T06:18:12.306Z,7.93
2023-04-16T06:20:43.705Z,7.93
2023-04-16T06:23:14.127Z,7.94
2023-04-16T06:25:44.548Z,7.95
2023-04-16T06:28:15.426Z,7.96
2023-04-16T06:30:45.965Z,7.95
2023-04-16T06:33:16.435Z,7.97
2023-04-16T06:35:47.101Z,7.98
2023-04-16T06:38:17.546Z,8.00
2023-04-16T06:40:49.350Z,8.02
2023-04-16T06:43:20.406Z,8.04
2023-04-16T06:45:51.171Z,8.06
2023-04-16T06:48:21.843Z,8.08
2023-04-16T06:50:52.923Z,8.10
2023-04-16T06:53:23.537Z,8.11
2023-04-16T06:55:54.048Z,8.13
2023-04-16T06:58:25.017Z,8.15
2023-04-16T07:00:55.675Z,8.17
2023-04-16T07:03:26.492Z,8.18
2023-04-16T07:05:57.497Z,8.19
2023-04-16T07:08:28.033Z,8.20
2023-04-16T07:10:58.596Z,8.21
2023-04-16T07:13:29.144Z,8.21
2023-04-16T07:15:59.937Z,8.22
2023-04-16T07:18:30.486Z,8.23
2023-04-16T07:21:01.081Z,8.26
2023-04-16T07:23:32.048Z,8.27
2023-04-16T07:26:02.947Z,8.29
2023-04-16T07:28:33.669Z,8.30
2023-04-16T07:31:04.547Z,8.30
2023-04-16T07:33:35.581Z,8.30
2023-04-16T07:36:06.485Z,8.33
2023-04-16T07:38:37.547Z,8.34
2023-04-16T07:41:08.856Z,8.36
2023-04-16T07:43:39.978Z,8.37
2023-04-16T07:46:10.769Z,8.38
2023-04-16T07:48:41.458Z,8.41
2023-04-16T07:51:11.874Z,8.42
2023-04-16T07:53:43.483Z,8.43
2023-04-16T07:56:14.760Z,8.45
2023-04-16T07:58:45.190Z,8.47
2023-04-16T08:01:16.562Z,8.48
2023-04-16T08:03:47.303Z,8.48
2023-04-16T08:06:18.129Z,8.48
2023-04-16T08:08:48.609Z,8.51
2023-04-16T08:11:19.194Z,8.53
2023-04-16T08:13:49.574Z,8.56
2023-04-16T08:16:20.082Z,8.60
2023-04-16T08:18:50.544Z,8.63
2023-04-16T08:21:21.075Z,8.65
2023-04-16T08:23:52.117Z,8.65
2023-04-16T08:26:23.908Z,8.65
2023-04-16T08:28:54.601Z,8.66
2023-04-16T08:31:25.216Z,8.66
2023-04-16T08:33:55.693Z,8.67
2023-04-16T08:36:26.488Z,8.69
2023-04-16T08:38:57.197Z,8.71
2023-04-16T08:41:31.970Z,8.73
2023-04-16T08:44:06.567Z,8.74
2023-04-16T08:46:39.500Z,8.75
2023-04-16T08:49:14.581Z,8.76
2023-04-16T08:51:51.163Z,8.77
2023-04-16T08:54:32.794Z,8.80
2023-04-16T08:57:06.869Z,8.84
2023-04-16T08:59:39.169Z,8.86
2023-04-16T09:02:10.961Z,8.88
2023-04-16T09:04:42.917Z,8.89
2023-04-16T09:07:14.035Z,8.88
2023-04-16T09:09:45.041Z,8.91
2023-04-16T09:12:15.635Z,8.92
2023-04-16T09:14:48.382Z,8.94
2023-04-16T09:17:19.149Z,8.95
2023-04-16T09:19:49.659Z,8.96
2023-04-16T09:22:20.799Z,8.96
2023-04-16T09:24:51.409Z,8.94
2023-04-16T09:27:23.735Z,8.92
2023-04-16T09:29:55.926Z,8.92
2023-04-16T09:32:29.885Z,8.93
2023-04-16T09:35:02.324Z,8.93
2023-04-16T09:37:33.433Z,8.95
2023-04-16T09:40:05.323Z,8.95
2023-04-16T09:42:37.291Z,8.96
2023-04-16T09:45:09.363Z,8.98
2023-04-16T09:47:45.435Z,8.98
2023-04-16T09:50:19.405Z,9.00
2023-04-16T09:52:51.888Z,9.01
2023-04-16T09:55:28.213Z,9.03
2023-04-16T09:58:03.408Z,9.03
2023-04-16T10:00:33.953Z,9.05
2023-04-16T10:03:08.223Z,9.07
2023-04-16T10:05:38.871Z,9.09
2023-04-16T10:08:15.374Z,9.09
2023-04-16T10:10:45.957Z,9.10
2023-04-16T10:13:17.635Z,9.10
2023-04-16T10:15:49.344Z,9.11
2023-04-16T10:18:20.221Z,9.11
2023-04-16T10:20:51.302Z,9.12
2023-04-16T10:23:22.497Z,9.11
2023-04-16T10:25:54.131Z,9.11
2023-04-16T10:28:25.581Z,9.12
2023-04-16T10:30:57.839Z,9.12
2023-04-16T10:33:30.546Z,9.13
2023-04-16T10:36:14.578Z,9.17
2023-04-16T10:38:50.707Z,9.21
2023-04-16T10:41:22.322Z,9.25
2023-04-16T10:43:53.988Z,9.30
2023-04-16T10:46:26.925Z,9.36
2023-04-16T10:49:02.783Z,9.41
2023-04-16T10:51:34.450Z,9.46
2023-04-16T10:54:23.999Z,9.51
2023-04-16T10:56:57.343Z,9.55
2023-04-16T10:59:31.527Z,9.57
2023-04-16T11:02:07.490Z,9.57
2023-04-16T11:04:39.993Z,9.58
2023-04-16T11:07:18.670Z,9.58
2023-04-16T11:09:59.765Z,9.59
2023-04-16T11:12:40.425Z,9.64
2023-04-16T11:15:12.792Z,9.68
2023-04-16T11:17:44.976Z,9.74
2023-04-16T11:20:20.875Z,9.80
2023-04-16T11:22:52.453Z,9.86
2023-04-16T11:25:26.717Z,9.92
2023-04-16T11:27:58.699Z,9.99
2023-04-16T11:30:33.888Z,10.04
2023-04-16T11:33:06.362Z,10.10
2023-04-16T11:35:37.007Z,10.16
2023-04-16T11:38:08.011Z,10.20
2023-04-16T11:40:38.684Z,10.24
2023-04-16T11:43:16.633Z,10.28
2023-04-16T11:46:02.621Z,10.33
2023-04-16T11:48:50.101Z,10.38
2023-04-16T11:51:23.051Z,10.42
2023-04-16T11:53:54.618Z,10.44
2023-04-16T11:56:33.387Z,10.44
2023-04-16T11:59:11.794Z,10.47
2023-04-16T12:01:45.536Z,10.52
2023-04-16T12:04:16.980Z,10.58
2023-04-16T12:07:07.553Z,10.65
2023-04-16T12:09:40.673Z,10.73
2023-04-16T12:12:30.691Z,10.80
2023-04-16T12:15:04.343Z,10.89
2023-04-16T12:17:36.683Z,10.98
2023-04-16T12:20:12.090Z,11.07
2023-04-16T12:22:46.098Z,11.18
2023-04-16T12:25:18.477Z,11.29
2023-04-16T12:27:53.407Z,11.37
2023-04-16T12:30:26.245Z,11.47
2023-04-16T12:33:16.578Z,11.56
2023-04-16T12:35:50.912Z,11.67
2023-04-16T12:38:24.095Z,11.78
2023-04-16T12:40:56.987Z,11.89
2023-04-16T12:43:28.497Z,11.95
2023-04-16T12:45:59.097Z,11.97
2023-04-16T12:48:29.566Z,11.99
2023-04-16T12:51:00.437Z,12.01
2023-04-16T12:53:31.040Z,12.05
2023-04-16T12:56:01.574Z,12.07
2023-04-16T12:58:32.026Z,12.08
2023-04-16T13:01:02.504Z,12.08
2023-04-16T13:03:36.420Z,12.08
2023-04-16T13:06:07.781Z,12.10
2023-04-16T13:08:39.155Z,12.10
2023-04-16T13:11:09.831Z,12.14
2023-04-16T13:13:40.432Z,12.22
2023-04-16T13:16:11.244Z,12.28
2023-04-16T13:18:43.463Z,12.37
2023-04-16T13:21:14.390Z,12.42
2023-04-16T13:23:45.069Z,12.46
2023-04-16T13:26:16.305Z,12.50
2023-04-16T13:28:46.737Z,12.50
2023-04-16T13:31:20.457Z,12.49
2023-04-16T13:33:51.174Z,12.48
2023-04-16T13:36:21.632Z,12.46
2023-04-16T13:38:52.052Z,12.45
2023-04-16T13:41:22.982Z,12.44
2023-04-16T13:43:53.552Z,12.42
2023-04-16T13:46:24.060Z,12.38
2023-04-16T13:48:54.558Z,12.33
2023-04-16T13:51:25.092Z,12.28
2023-04-16T13:53:56.351Z,12.23
2023-04-16T13:56:27.381Z,12.17
2023-04-16T13:58:57.821Z,12.13
2023-04-16T14:01:28.786Z,12.10
2023-04-16T14:04:01.954Z,12.05
2023-04-16T14:06:33.068Z,12.01
2023-04-16T14:09:04.202Z,12.01
2023-04-16T14:11:35.079Z,12.01
2023-04-16T14:14:05.733Z,12.01
2023-04-16T14:16:36.558Z,12.01
2023-04-16T14:19:07.295Z,12.02
2023-04-16T14:21:37.913Z,12.06
2023-04-16T14:24:10.467Z,12.11
2023-04-16T14:26:41.013Z,12.17
2023-04-16T14:29:12.213Z,12.22
2023-04-16T14:31:42.710Z,12.27
2023-04-16T14:34:13.820Z,12.33
2023-04-16T14:36:44.373Z,12.38
2023-04-16T14:39:15.034Z,12.44
2023-04-16T14:41:45.947Z,12.48
2023-04-16T14:44:16.505Z,12.53
2023-04-16T14:46:47.281Z,12.60
2023-04-16T14:49:18.295Z,12.64
2023-04-16T14:51:49.338Z,12.65
2023-04-16T14:54:20.369Z,12.65
2023-04-16T14:56:51.905Z,12.64
2023-04-16T14:59:22.316Z,12.61
2023-04-16T15:01:53.704Z,12.55
2023-04-16T15:04:24.416Z,12.50
2023-04-16T15:06:58.797Z,12.48
2023-04-16T15:09:29.848Z,12.45
2023-04-16T15:12:00.713Z,12.44
2023-04-16T15:14:31.528Z,12.43
2023-04-16T15:17:02.122Z,12.40
2023-04-16T15:19:32.551Z,12.36
2023-04-16T15:22:03.046Z,12.33
2023-04-16T15:24:33.402Z,12.29
2023-04-16T15:27:05.769Z,12.30
2023-04-16T15:29:36.272Z,12.31
2023-04-16T15:32:07.249Z,12.36
2023-04-16T15:34:37.945Z,12.43
2023-04-16T15:37:09.573Z,12.53
2023-04-16T15:39:39.977Z,12.64
2023-04-16T15:42:11.141Z,12.73
2023-04-16T15:44:42.191Z,12.79
2023-04-16T15:47:12.903Z,12.81
2023-04-16T15:49:43.610Z,12.80
2023-04-16T15:52:14.787Z,12.79
2023-04-16T15:54:45.703Z,12.76
2023-04-16T15:57:16.951Z,12.72
2023-04-16T15:59:59.553Z,12.68
2023-04-16T16:02:36.653Z,12.64
2023-04-16T16:05:10.434Z,12.62
2023-04-16T16:07:41.401Z,12.59
2023-04-16T16:10:13.899Z,12.53
2023-04-16T16:12:44.277Z,12.49
2023-04-16T16:15:15.229Z,12.46
2023-04-16T16:17:45.696Z,12.40
2023-04-16T16:20:16.947Z,12.35
2023-04-16T16:22:48.341Z,12.30
2023-04-16T16:25:19.313Z,12.27
2023-04-16T16:27:50.318Z,12.23
2023-04-16T16:30:20.983Z,12.19
2023-04-16T16:32:51.657Z,12.13
2023-04-16T16:35:22.640Z,12.10
2023-04-16T16:37:55.625Z,12.08
2023-04-16T16:40:26.361Z,12.06
2023-04-16T16:42:56.977Z,12.03
2023-04-16T16:45:28.557Z,11.99
2023-04-16T16:47:59.235Z,11.96
2023-04-16T16:50:31.977Z,11.93
2023-04-16T16:53:02.706Z,11.91
2023-04-16T16:55:35.063Z,11.87
2023-04-16T16:58:05.692Z,11.83
2023-04-16T17:00:37.072Z,11.79
2023-04-16T17:03:08.760Z,11.76
2023-04-16T17:05:39.459Z,11.74
2023-04-16T17:08:09.938Z,11.72
2023-04-16T17:10:40.812Z,11.71
2023-04-16T17:13:13.541Z,11.71
2023-04-16T17:15:44.382Z,11.68
2023-04-16T17:18:15.024Z,11.65
2023-04-16T17:20:45.637Z,11.64
2023-04-16T17:23:16.197Z,11.64
2023-04-16T17:25:46.971Z,11.63
2023-04-16T17:28:17.730Z,11.63
2023-04-16T17:30:53.421Z,11.63
2023-04-16T17:33:24.514Z,11.62
2023-04-16T17:35:55.326Z,11.62
2023-04-16T17:38:25.819Z,11.62
2023-04-16T17:40:57.122Z,11.63
2023-04-16T17:43:28.165Z,11.62
2023-04-16T17:45:58.613Z,11.58
2023-04-16T17:48:29.117Z,11.54
2023-04-16T17:50:59.561Z,11.52
2023-04-16T17:53:29.991Z,11.49
2023-04-16T17:56:00.293Z,11.46
2023-04-16T17:58:32.802Z,11.42
2023-04-16T18:01:03.439Z,11.40
2023-04-16T18:03:34.492Z,11.37
2023-04-16T18:06:05.274Z,11.34
2023-04-16T18:08:36.907Z,11.32
2023-04-16T18:11:10.044Z,11.29
2023-04-16T18:13:40.558Z,11.27
2023-04-16T18:16:16.966Z,11.24
2023-04-16T18:18:47.827Z,11.22
2023-04-16T18:21:18.447Z,11.18
2023-04-16T18:23:48.897Z,11.15
2023-04-16T18:26:22.289Z,11.12
2023-04-16T18:28:53.481Z,11.10
2023-04-16T18:31:24.272Z,11.07
2023-04-16T18:33:58.372Z,11.04
2023-04-16T18:36:29.267Z,11.03
2023-04-16T18:39:02.109Z,11.02
2023-04-16T18:41:33.675Z,11.01
2023-04-16T18:44:04.224Z,11.01
2023-04-16T18:46:34.965Z,11.00
2023-04-16T18:49:05.603Z,10.96
2023-04-16T18:51:36.118Z,10.97
2023-04-16T18:54:06.877Z,10.97
2023-04-16T18:56:37.590Z,10.97
2023-04-16T18:59:08.644Z,10.96
2023-04-16T19:01:39.653Z,10.95
2023-04-16T19:04:10.051Z,10.94
2023-04-16T19:06:40.491Z,10.94
2023-04-16T19:09:11.714Z,10.95
2023-04-16T19:11:42.833Z,10.94
2023-04-16T19:14:13.692Z,10.93
2023-04-16T19:16:44.345Z,10.92
2023-04-16T19:19:14.893Z,10.90
2023-04-16T19:21:45.660Z,10.88
2023-04-16T19:24:16.572Z,10.86
2023-04-16T19:26:47.035Z,10.83
2023-04-16T19:29:18.024Z,10.81
2023-04-16T19:31:48.685Z,10.78
2023-04-16T19:34:19.292Z,10.76
2023-04-16T19:36:49.842Z,10.73
2023-04-16T19:39:20.314Z,10.72
2023-04-16T19:41:50.735Z,10.71
2023-04-16T19:44:23.034Z,10.69
2023-04-16T19:46:53.469Z,10.68
2023-04-16T19:49:25.168Z,10.66
2023-04-16T19:51:55.746Z,10.65
2023-04-16T19:54:26.284Z,10.63
2023-04-16T19:56:57.168Z,10.61
2023-04-16T19:59:28.600Z,10.61
2023-04-16T20:01:59.169Z,10.60
2023-04-16T20:04:29.831Z,10.58
2023-04-16T20:07:00.307Z,10.58
2023-04-16T20:09:30.985Z,10.58
2023-04-16T20:12:02.117Z,10.56
2023-04-16T20:14:32.595Z,10.54
2023-04-16T20:17:03.412Z,10.54
2023-04-16T20:19:37.753Z,10.52
2023-04-16T20:22:08.212Z,10.51
2023-04-16T20:24:38.678Z,10.48
2023-04-16T20:27:09.115Z,10.47
2023-04-16T20:29:39.605Z,10.45
2023-04-16T20:32:10.343Z,10.42
2023-04-16T20:34:40.844Z,10.38
2023-04-16T20:37:11.573Z,10.35
2023-04-16T20:39:42.267Z,10.32
2023-04-16T20:42:13.188Z,10.31
2023-04-16T20:44:50.382Z,10.29
2023-04-16T20:47:22.466Z,10.27
2023-04-16T20:49:54.893Z,10.25
2023-04-16T20:52:25.727Z,10.23
2023-04-16T20:54:56.203Z,10.21
2023-04-16T20:57:28.138Z,10.18
2023-04-16T20:59:59.508Z,10.15
2023-04-16T21:02:30.343Z,10.13
2023-04-16T21:05:01.119Z,10.12
2023-04-16T21:07:31.819Z,10.09
2023-04-16T21:10:02.816Z,10.07
2023-04-16T21:12:33.256Z,10.05
2023-04-16T21:15:04.178Z,10.02
2023-04-16T21:17:35.041Z,10.00
2023-04-16T21:20:10.545Z,9.97
2023-04-16T21:22:41.022Z,9.95
2023-04-16T21:25:12.373Z,9.92
2023-04-16T21:27:43.128Z,9.90
2023-04-16T21:30:15.729Z,9.89
2023-04-16T21:32:47.490Z,9.87
2023-04-16T21:35:18.038Z,9.87
2023-04-16T21:37:48.825Z,9.85
2023-04-16T21:40:19.424Z,9.84
2023-04-16T21:42:49.922Z,9.86
2023-04-16T21:45:20.726Z,9.86
2023-04-16T21:47:51.219Z,9.86
2023-04-16T21:50:21.878Z,9.85
2023-04-16T21:52:52.541Z,9.84
2023-04-16T21:55:24.254Z,9.82
2023-04-16T21:57:54.920Z,9.82
2023-04-16T22:00:25.784Z,9.80
2023-04-16T22:02:56.744Z,9.82
2023-04-16T22:05:27.436Z,9.81
2023-04-16T22:07:58.249Z,9.80
2023-04-16T22:10:28.717Z,9.80
2023-04-16T22:12:59.461Z,9.79
2023-04-16T22:15:30.416Z,9.79
2023-04-16T22:18:01.165Z,9.77
2023-04-16T22:20:38.731Z,9.76
2023-04-16T22:23:09.567Z,9.75
2023-04-16T22:25:40.554Z,9.76
2023-04-16T22:28:11.264Z,9.74
2023-04-16T22:30:41.718Z,9.74
2023-04-16T22:33:12.223Z,9.74
2023-04-16T22:35:42.782Z,9.72
2023-04-16T22:38:13.177Z,9.69
2023-04-16T22:40:43.900Z,9.66
2023-04-16T22:43:14.672Z,9.64
2023-04-16T22:45:47.137Z,9.58
2023-04-16T22:48:18.603Z,9.57
2023-04-16T22:50:50.964Z,9.54
2023-04-16T22:53:21.808Z,9.53
2023-04-16T22:55:52.251Z,9.52
2023-04-16T22:58:22.825Z,9.49
2023-04-16T23:00:54.258Z,9.46
2023-04-16T23:03:24.889Z,9.44
2023-04-16T23:05:55.456Z,9.41
2023-04-16T23:08:25.927Z,9.38
2023-04-16T23:10:56.406Z,9.36
2023-04-16T23:13:26.889Z,9.34
2023-04-16T23:15:57.421Z,9.33
2023-04-16T23:18:28.234Z,9.31
2023-04-16T23:20:58.650Z,9.28
2023-04-16T23:23:29.256Z,9.27
2023-04-16T23:26:00.903Z,9.25
2023-04-16T23:28:31.415Z,9.24
2023-04-16T23:31:02.191Z,9.21
2023-04-16T23:33:33.414Z,9.20
2023-04-16T23:36:04.172Z,9.16
2023-04-16T23:38:34.556Z,9.14
2023-04-16T23:41:05.003Z,9.13
2023-04-16T23:43:36.403Z,9.11
2023-04-16T23:46:07.191Z,9.09
2023-04-16T23:48:37.995Z,9.07
2023-04-16T23:51:08.721Z,9.07
2023-04-16T23:53:40.675Z,9.04
2023-04-16T23:56:12.043Z,9.01
2023-04-16T23:58:42.761Z,9.01
